메인 페이지
METAR-TAF:

METAR-TAF

공항 :

페어뱅크스, 알래스카, 미국

위도: 64-48-14N, 경도: 147-52-34W, 고도: 132m

현재 날씨관측

예보는 18분 전, 13:53시(UTC)에 발표되었습니다.
무풍
온도 -29°C
습도 68%
기압 1011 hPa
시정: 16.1km
맑음

METAR: PAFA 061353Z 00000KT 10SM CLR M29/M33 A2986 RMK AO2 SLP133 T12941328

시각: 05:11 (14:11 UTC)

예보

예보는 2 시간 44분 전, 11:27시(UTC)에 발표되었습니다.
예보 대상 시간: 06일 12시부터 07일 18시까지 (UTC)
kt
시정: 10km
고도 100ft 상공 구름 조금
고도 20000ft 상공 구름 보통

TAF: PAFA 061127Z 0612/0718 00000KT P6SM FEW001 SCT200

4,000개 이상의 공항 관측 자료 및 예보 (METAR 및 TAF 보고).

지도상에서 검색 가능한 기상관측소가 노란 점과 빨간 점으로 표시되어 있습니다.

기상관측소 명을 보려면 표시 위로 마우스를 이동하세요.

날씨 관측과 예보를 보려면 클릭하세요.

지도 변경 : 확대하려면 엑스 표시가 있는 녹색 버튼, 축소하려면 빼기 표시가 있는 녹색 버튼, 다음 페이지의 지도를 보려면 녹색 화살표를 클릭하세요.


METAR-TAF: